sensor_id;sensor_type;location;lat;lon;timestamp;temperature;humidity
6538;DHT22;3302;52.508;13.454;2023-08-06T00:00:40;17.60;99.90
6538;DHT22;3302;52.508;13.454;2023-08-06T00:03:06;17.60;99.90
6538;DHT22;3302;52.508;13.454;2023-08-06T00:05:32;17.60;99.90
6538;DHT22;3302;52.508;13.454;2023-08-06T00:07:58;17.50;99.90
6538;DHT22;3302;52.508;13.454;2023-08-06T00:10:24;17.50;99.90
6538;DHT22;3302;52.508;13.454;2023-08-06T00:12:49;17.60;99.90
6538;DHT22;3302;52.508;13.454;2023-08-06T00:15:15;17.50;99.90
6538;DHT22;3302;52.508;13.454;2023-08-06T00:17:41;17.40;99.90
6538;DHT22;3302;52.508;13.454;2023-08-06T00:20:07;17.40;99.90
6538;DHT22;3302;52.508;13.454;2023-08-06T00:22:37;17.40;99.90
6538;DHT22;3302;52.508;13.454;2023-08-06T00:25:05;17.40;99.90
6538;DHT22;3302;52.508;13.454;2023-08-06T00:27:31;17.40;99.90
6538;DHT22;3302;52.508;13.454;2023-08-06T00:29:58;17.40;99.90
6538;DHT22;3302;52.508;13.454;2023-08-06T00:32:24;17.40;99.90
6538;DHT22;3302;52.508;13.454;2023-08-06T00:34:50;17.40;99.90
6538;DHT22;3302;52.508;13.454;2023-08-06T00:37:19;17.40;99.90
6538;DHT22;3302;52.508;13.454;2023-08-06T00:39:45;17.30;99.90
6538;DHT22;3302;52.508;13.454;2023-08-06T00:42:11;17.50;99.90
6538;DHT22;3302;52.508;13.454;2023-08-06T00:44:38;17.30;99.90
6538;DHT22;3302;52.508;13.454;2023-08-06T00:47:06;17.30;99.90
6538;DHT22;3302;52.508;13.454;2023-08-06T00:49:34;17.20;99.90
6538;DHT22;3302;52.508;13.454;2023-08-06T00:52:00;17.20;99.90
6538;DHT22;3302;52.508;13.454;2023-08-06T00:54:27;17.30;99.90
6538;DHT22;3302;52.508;13.454;2023-08-06T00:56:53;17.20;99.90
6538;DHT22;3302;52.508;13.454;2023-08-06T00:59:21;17.20;99.90
6538;DHT22;3302;52.508;13.454;2023-08-06T01:01:47;17.30;99.90
6538;DHT22;3302;52.508;13.454;2023-08-06T01:04:12;17.20;99.90
6538;DHT22;3302;52.508;13.454;2023-08-06T01:06:48;17.20;99.90
6538;DHT22;3302;52.508;13.454;2023-08-06T01:11:55;17.20;99.90
6538;DHT22;3302;52.508;13.454;2023-08-06T01:14:33;17.10;99.90
6538;DHT22;3302;52.508;13.454;2023-08-06T01:17:03;17.00;99.90
6538;DHT22;3302;52.508;13.454;2023-08-06T01:19:30;17.10;99.90
6538;DHT22;3302;52.508;13.454;2023-08-06T01:21:56;17.10;99.90
6538;DHT22;3302;52.508;13.454;2023-08-06T01:24:22;17.00;99.90
6538;DHT22;3302;52.508;13.454;2023-08-06T01:27:06;17.00;99.90
6538;DHT22;3302;52.508;13.454;2023-08-06T01:29:35;17.00;99.90
6538;DHT22;3302;52.508;13.454;2023-08-06T01:32:05;16.90;99.90
6538;DHT22;3302;52.508;13.454;2023-08-06T01:34:34;17.00;99.90
6538;DHT22;3302;52.508;13.454;2023-08-06T01:37:01;17.00;99.90
6538;DHT22;3302;52.508;13.454;2023-08-06T01:39:27;16.90;99.90
6538;DHT22;3302;52.508;13.454;2023-08-06T01:41:53;16.90;99.90
6538;DHT22;3302;52.508;13.454;2023-08-06T01:44:18;16.90;99.90
6538;DHT22;3302;52.508;13.454;2023-08-06T01:46:44;17.00;99.90
6538;DHT22;3302;52.508;13.454;2023-08-06T01:49:10;17.00;99.90
6538;DHT22;3302;52.508;13.454;2023-08-06T01:51:36;17.00;99.90
6538;DHT22;3302;52.508;13.454;2023-08-06T01:54:01;16.90;99.90
6538;DHT22;3302;52.508;13.454;2023-08-06T01:56:27;16.80;99.90
6538;DHT22;3302;52.508;13.454;2023-08-06T01:58:53;16.80;99.90
6538;DHT22;3302;52.508;13.454;2023-08-06T02:01:19;16.90;99.90
6538;DHT22;3302;52.508;13.454;2023-08-06T02:03:45;16.90;99.90
6538;DHT22;3302;52.508;13.454;2023-08-06T02:06:11;16.90;99.90
6538;DHT22;3302;52.508;13.454;2023-08-06T02:08:36;16.90;99.90
6538;DHT22;3302;52.508;13.454;2023-08-06T02:11:02;16.90;99.90
6538;DHT22;3302;52.508;13.454;2023-08-06T02:13:28;16.80;99.90
6538;DHT22;3302;52.508;13.454;2023-08-06T02:15:54;16.90;99.90
6538;DHT22;3302;52.508;13.454;2023-08-06T02:18:20;16.90;99.90
6538;DHT22;3302;52.508;13.454;2023-08-06T02:20:58;16.80;99.90
6538;DHT22;3302;52.508;13.454;2023-08-06T02:23:24;16.60;99.90
6538;DHT22;3302;52.508;13.454;2023-08-06T02:26:02;16.50;99.90
6538;DHT22;3302;52.508;13.454;2023-08-06T02:28:30;16.50;99.90
6538;DHT22;3302;52.508;13.454;2023-08-06T02:30:56;16.50;99.90
6538;DHT22;3302;52.508;13.454;2023-08-06T02:33:22;16.40;99.90
6538;DHT22;3302;52.508;13.454;2023-08-06T02:35:47;16.40;99.90
6538;DHT22;3302;52.508;13.454;2023-08-06T02:38:13;16.40;99.90
6538;DHT22;3302;52.508;13.454;2023-08-06T02:40:46;16.30;99.90
6538;DHT22;3302;52.508;13.454;2023-08-06T02:43:14;16.30;99.90
6538;DHT22;3302;52.508;13.454;2023-08-06T02:45:40;16.30;99.90
6538;DHT22;3302;52.508;13.454;2023-08-06T02:48:06;16.30;99.90
6538;DHT22;3302;52.508;13.454;2023-08-06T02:50:38;16.30;99.90
6538;DHT22;3302;52.508;13.454;2023-08-06T02:53:04;16.30;99.90
6538;DHT22;3302;52.508;13.454;2023-08-06T02:55:32;16.40;99.90
6538;DHT22;3302;52.508;13.454;2023-08-06T02:58:00;16.30;99.90
6538;DHT22;3302;52.508;13.454;2023-08-06T03:00:26;16.20;99.90
6538;DHT22;3302;52.508;13.454;2023-08-06T03:02:53;16.20;99.90
6538;DHT22;3302;52.508;13.454;2023-08-06T03:05:19;16.10;99.90
6538;DHT22;3302;52.508;13.454;2023-08-06T03:07:45;16.20;99.90
6538;DHT22;3302;52.508;13.454;2023-08-06T03:10:10;16.20;99.90
6538;DHT22;3302;52.508;13.454;2023-08-06T03:12:36;16.20;99.90
6538;DHT22;3302;52.508;13.454;2023-08-06T03:15:02;16.30;99.90
6538;DHT22;3302;52.508;13.454;2023-08-06T03:17:28;16.30;99.90
6538;DHT22;3302;52.508;13.454;2023-08-06T03:19:54;16.40;99.90
6538;DHT22;3302;52.508;13.454;2023-08-06T03:22:20;16.30;99.90
6538;DHT22;3302;52.508;13.454;2023-08-06T03:24:46;16.40;99.90
6538;DHT22;3302;52.508;13.454;2023-08-06T03:27:11;16.40;99.90
6538;DHT22;3302;52.508;13.454;2023-08-06T03:29:37;16.20;99.90
6538;DHT22;3302;52.508;13.454;2023-08-06T03:32:03;16.10;99.90
6538;DHT22;3302;52.508;13.454;2023-08-06T03:34:29;16.10;99.90
6538;DHT22;3302;52.508;13.454;2023-08-06T03:36:55;16.10;99.90
6538;DHT22;3302;52.508;13.454;2023-08-06T03:39:20;16.00;99.90
6538;DHT22;3302;52.508;13.454;2023-08-06T03:41:46;16.10;99.90
6538;DHT22;3302;52.508;13.454;2023-08-06T03:44:12;16.10;99.90
6538;DHT22;3302;52.508;13.454;2023-08-06T03:46:38;16.20;99.90
6538;DHT22;3302;52.508;13.454;2023-08-06T03:49:04;16.20;99.90
6538;DHT22;3302;52.508;13.454;2023-08-06T03:51:30;16.10;99.90
6538;DHT22;3302;52.508;13.454;2023-08-06T03:53:55;16.00;99.90
6538;DHT22;3302;52.508;13.454;2023-08-06T03:56:21;16.00;99.90
6538;DHT22;3302;52.508;13.454;2023-08-06T03:58:47;15.90;99.90
6538;DHT22;3302;52.508;13.454;2023-08-06T04:01:14;15.90;99.90
6538;DHT22;3302;52.508;13.454;2023-08-06T04:03:40;15.90;99.90
6538;DHT22;3302;52.508;13.454;2023-08-06T04:06:06;15.90;99.90
6538;DHT22;3302;52.508;13.454;2023-08-06T04:08:32;15.90;99.90
6538;DHT22;3302;52.508;13.454;2023-08-06T04:10:58;15.80;99.90
6538;DHT22;3302;52.508;13.454;2023-08-06T04:13:24;15.90;99.90
6538;DHT22;3302;52.508;13.454;2023-08-06T04:15:49;15.90;99.90
6538;DHT22;3302;52.508;13.454;2023-08-06T04:18:16;15.90;99.90
6538;DHT22;3302;52.508;13.454;2023-08-06T04:20:43;15.90;99.90
6538;DHT22;3302;52.508;13.454;2023-08-06T04:23:10;15.80;99.90
6538;DHT22;3302;52.508;13.454;2023-08-06T04:25:35;15.90;99.90
6538;DHT22;3302;52.508;13.454;2023-08-06T04:28:01;15.90;99.90
6538;DHT22;3302;52.508;13.454;2023-08-06T04:30:27;15.90;99.90
6538;DHT22;3302;52.508;13.454;2023-08-06T04:32:53;15.90;99.90
6538;DHT22;3302;52.508;13.454;2023-08-06T04:35:19;15.90;99.90
6538;DHT22;3302;52.508;13.454;2023-08-06T04:37:44;15.90;99.90
6538;DHT22;3302;52.508;13.454;2023-08-06T04:40:10;15.80;99.90
6538;DHT22;3302;52.508;13.454;2023-08-06T04:42:36;15.90;99.90
6538;DHT22;3302;52.508;13.454;2023-08-06T04:45:02;15.90;99.90
6538;DHT22;3302;52.508;13.454;2023-08-06T04:47:28;15.90;99.90
6538;DHT22;3302;52.508;13.454;2023-08-06T04:49:54;15.90;99.90
6538;DHT22;3302;52.508;13.454;2023-08-06T04:52:20;16.00;99.90
6538;DHT22;3302;52.508;13.454;2023-08-06T04:54:46;16.00;99.90
6538;DHT22;3302;52.508;13.454;2023-08-06T04:57:12;16.00;99.90
6538;DHT22;3302;52.508;13.454;2023-08-06T04:59:38;16.00;99.90
6538;DHT22;3302;52.508;13.454;2023-08-06T05:02:04;16.00;99.90
6538;DHT22;3302;52.508;13.454;2023-08-06T05:04:30;16.00;99.90
6538;DHT22;3302;52.508;13.454;2023-08-06T05:06:56;16.00;99.90
6538;DHT22;3302;52.508;13.454;2023-08-06T05:09:22;16.00;99.90
6538;DHT22;3302;52.508;13.454;2023-08-06T05:11:48;16.10;99.90
6538;DHT22;3302;52.508;13.454;2023-08-06T05:14:14;16.20;99.90
6538;DHT22;3302;52.508;13.454;2023-08-06T05:16:40;16.20;99.90
6538;DHT22;3302;52.508;13.454;2023-08-06T05:19:06;16.20;99.90
6538;DHT22;3302;52.508;13.454;2023-08-06T05:21:32;16.20;99.90
6538;DHT22;3302;52.508;13.454;2023-08-06T05:23:57;16.20;99.90
6538;DHT22;3302;52.508;13.454;2023-08-06T05:26:23;16.20;99.90
6538;DHT22;3302;52.508;13.454;2023-08-06T05:28:49;16.20;99.90
6538;DHT22;3302;52.508;13.454;2023-08-06T05:31:15;16.10;99.90
6538;DHT22;3302;52.508;13.454;2023-08-06T05:33:41;16.10;99.90
6538;DHT22;3302;52.508;13.454;2023-08-06T05:36:06;16.10;99.90
6538;DHT22;3302;52.508;13.454;2023-08-06T05:38:32;16.10;99.90
6538;DHT22;3302;52.508;13.454;2023-08-06T05:40:58;16.30;99.90
6538;DHT22;3302;52.508;13.454;2023-08-06T05:43:24;16.40;99.90
6538;DHT22;3302;52.508;13.454;2023-08-06T05:45:50;16.40;99.90
6538;DHT22;3302;52.508;13.454;2023-08-06T05:48:16;16.50;99.90
6538;DHT22;3302;52.508;13.454;2023-08-06T05:50:42;16.40;99.90
6538;DHT22;3302;52.508;13.454;2023-08-06T05:53:07;16.30;99.90
6538;DHT22;3302;52.508;13.454;2023-08-06T05:55:34;16.20;99.90
6538;DHT22;3302;52.508;13.454;2023-08-06T05:58:00;16.20;99.90
6538;DHT22;3302;52.508;13.454;2023-08-06T06:00:26;16.30;99.90
6538;DHT22;3302;52.508;13.454;2023-08-06T06:02:51;16.40;99.90
6538;DHT22;3302;52.508;13.454;2023-08-06T06:05:17;16.50;99.90
6538;DHT22;3302;52.508;13.454;2023-08-06T06:07:43;16.50;99.90
6538;DHT22;3302;52.508;13.454;2023-08-06T06:10:09;16.50;99.90
6538;DHT22;3302;52.508;13.454;2023-08-06T06:12:35;16.50;99.90
6538;DHT22;3302;52.508;13.454;2023-08-06T06:15:01;16.50;99.90
6538;DHT22;3302;52.508;13.454;2023-08-06T06:17:27;16.70;99.90
6538;DHT22;3302;52.508;13.454;2023-08-06T06:19:53;16.70;99.90
6538;DHT22;3302;52.508;13.454;2023-08-06T06:22:19;16.60;99.90
6538;DHT22;3302;52.508;13.454;2023-08-06T06:24:44;16.50;99.90
6538;DHT22;3302;52.508;13.454;2023-08-06T06:27:10;16.50;99.90
6538;DHT22;3302;52.508;13.454;2023-08-06T06:29:36;16.60;99.90
6538;DHT22;3302;52.508;13.454;2023-08-06T06:32:02;16.70;99.90
6538;DHT22;3302;52.508;13.454;2023-08-06T06:34:28;16.50;99.90
6538;DHT22;3302;52.508;13.454;2023-08-06T06:36:54;16.50;99.90
6538;DHT22;3302;52.508;13.454;2023-08-06T06:39:21;16.60;99.90
6538;DHT22;3302;52.508;13.454;2023-08-06T06:41:46;16.60;99.90
6538;DHT22;3302;52.508;13.454;2023-08-06T06:44:13;16.60;99.90
6538;DHT22;3302;52.508;13.454;2023-08-06T06:46:40;16.70;99.90
6538;DHT22;3302;52.508;13.454;2023-08-06T06:49:06;16.80;99.90
6538;DHT22;3302;52.508;13.454;2023-08-06T06:51:32;16.90;99.90
6538;DHT22;3302;52.508;13.454;2023-08-06T06:53:58;16.90;99.90
6538;DHT22;3302;52.508;13.454;2023-08-06T06:56:24;16.90;99.90
6538;DHT22;3302;52.508;13.454;2023-08-06T06:58:50;17.00;99.90
6538;DHT22;3302;52.508;13.454;2023-08-06T07:01:15;16.90;99.90
6538;DHT22;3302;52.508;13.454;2023-08-06T07:03:41;16.90;99.90
6538;DHT22;3302;52.508;13.454;2023-08-06T07:06:07;16.90;99.90
6538;DHT22;3302;52.508;13.454;2023-08-06T07:08:33;17.00;99.90
6538;DHT22;3302;52.508;13.454;2023-08-06T07:11:06;17.00;99.90
6538;DHT22;3302;52.508;13.454;2023-08-06T07:13:33;16.90;99.90
6538;DHT22;3302;52.508;13.454;2023-08-06T07:15:59;17.00;99.90
6538;DHT22;3302;52.508;13.454;2023-08-06T07:18:25;17.10;99.90
6538;DHT22;3302;52.508;13.454;2023-08-06T07:20:52;17.10;99.90
6538;DHT22;3302;52.508;13.454;2023-08-06T07:23:22;17.20;99.90
6538;DHT22;3302;52.508;13.454;2023-08-06T07:25:48;17.20;99.90
6538;DHT22;3302;52.508;13.454;2023-08-06T07:28:15;17.20;99.90
6538;DHT22;3302;52.508;13.454;2023-08-06T07:30:41;17.00;99.90
6538;DHT22;3302;52.508;13.454;2023-08-06T07:33:07;17.10;99.90
6538;DHT22;3302;52.508;13.454;2023-08-06T07:35:33;17.10;99.90
6538;DHT22;3302;52.508;13.454;2023-08-06T07:37:59;17.10;99.90
6538;DHT22;3302;52.508;13.454;2023-08-06T07:40:25;17.00;99.90
6538;DHT22;3302;52.508;13.454;2023-08-06T07:42:51;17.10;99.90
6538;DHT22;3302;52.508;13.454;2023-08-06T07:45:17;17.20;99.90
6538;DHT22;3302;52.508;13.454;2023-08-06T07:47:43;17.20;99.90
6538;DHT22;3302;52.508;13.454;2023-08-06T07:50:09;17.20;99.90
6538;DHT22;3302;52.508;13.454;2023-08-06T07:52:35;17.20;99.90
6538;DHT22;3302;52.508;13.454;2023-08-06T07:55:01;17.20;99.90
6538;DHT22;3302;52.508;13.454;2023-08-06T07:57:31;17.20;99.90
6538;DHT22;3302;52.508;13.454;2023-08-06T07:59:59;17.10;99.90
6538;DHT22;3302;52.508;13.454;2023-08-06T08:02:24;17.00;99.90
6538;DHT22;3302;52.508;13.454;2023-08-06T08:04:50;17.10;99.90
6538;DHT22;3302;52.508;13.454;2023-08-06T08:07:16;17.10;99.90
6538;DHT22;3302;52.508;13.454;2023-08-06T08:09:42;17.20;99.90
6538;DHT22;3302;52.508;13.454;2023-08-06T08:12:07;17.10;99.90
6538;DHT22;3302;52.508;13.454;2023-08-06T08:14:33;17.10;99.90
6538;DHT22;3302;52.508;13.454;2023-08-06T08:17:02;17.20;99.90
6538;DHT22;3302;52.508;13.454;2023-08-06T08:19:29;17.20;99.90
6538;DHT22;3302;52.508;13.454;2023-08-06T08:21:55;17.10;99.90
6538;DHT22;3302;52.508;13.454;2023-08-06T08:24:21;17.10;99.90
6538;DHT22;3302;52.508;13.454;2023-08-06T08:26:53;17.10;99.90
6538;DHT22;3302;52.508;13.454;2023-08-06T08:29:22;17.00;99.90
6538;DHT22;3302;52.508;13.454;2023-08-06T08:31:48;16.80;99.90
6538;DHT22;3302;52.508;13.454;2023-08-06T08:34:17;16.90;99.90
6538;DHT22;3302;52.508;13.454;2023-08-06T08:36:43;17.10;99.90
6538;DHT22;3302;52.508;13.454;2023-08-06T08:39:13;17.10;99.90
6538;DHT22;3302;52.508;13.454;2023-08-06T08:41:39;17.00;99.90
6538;DHT22;3302;52.508;13.454;2023-08-06T08:44:08;17.00;99.90
6538;DHT22;3302;52.508;13.454;2023-08-06T08:46:36;17.10;99.90
6538;DHT22;3302;52.508;13.454;2023-08-06T08:49:04;17.00;99.90
6538;DHT22;3302;52.508;13.454;2023-08-06T08:51:30;17.10;99.90
6538;DHT22;3302;52.508;13.454;2023-08-06T08:53:57;17.30;99.90
6538;DHT22;3302;52.508;13.454;2023-08-06T08:56:23;17.30;99.90
6538;DHT22;3302;52.508;13.454;2023-08-06T08:58:50;17.40;99.90
6538;DHT22;3302;52.508;13.454;2023-08-06T09:01:17;17.30;99.90
6538;DHT22;3302;52.508;13.454;2023-08-06T09:03:44;17.30;99.90
6538;DHT22;3302;52.508;13.454;2023-08-06T09:06:11;17.40;99.90
6538;DHT22;3302;52.508;13.454;2023-08-06T09:08:44;17.50;99.90
6538;DHT22;3302;52.508;13.454;2023-08-06T09:11:12;17.70;99.90
6538;DHT22;3302;52.508;13.454;2023-08-06T09:13:38;17.70;99.90
6538;DHT22;3302;52.508;13.454;2023-08-06T09:16:04;17.60;99.90
6538;DHT22;3302;52.508;13.454;2023-08-06T09:18:30;17.60;99.90
6538;DHT22;3302;52.508;13.454;2023-08-06T09:20:57;17.60;99.90
6538;DHT22;3302;52.508;13.454;2023-08-06T09:23:30;17.60;99.90
6538;DHT22;3302;52.508;13.454;2023-08-06T09:25:57;17.60;99.90
6538;DHT22;3302;52.508;13.454;2023-08-06T09:28:23;17.70;99.90
6538;DHT22;3302;52.508;13.454;2023-08-06T09:30:50;17.60;99.90
6538;DHT22;3302;52.508;13.454;2023-08-06T09:33:19;17.60;99.90
6538;DHT22;3302;52.508;13.454;2023-08-06T09:35:49;17.60;99.90
6538;DHT22;3302;52.508;13.454;2023-08-06T09:38:16;17.60;99.90
6538;DHT22;3302;52.508;13.454;2023-08-06T09:40:42;17.60;99.90
6538;DHT22;3302;52.508;13.454;2023-08-06T09:43:08;17.50;99.90
6538;DHT22;3302;52.508;13.454;2023-08-06T09:45:37;17.60;99.90
6538;DHT22;3302;52.508;13.454;2023-08-06T09:48:08;17.70;99.90
6538;DHT22;3302;52.508;13.454;2023-08-06T09:50:35;17.80;99.90
6538;DHT22;3302;52.508;13.454;2023-08-06T09:53:07;17.70;99.90
6538;DHT22;3302;52.508;13.454;2023-08-06T09:55:34;17.70;99.90
6538;DHT22;3302;52.508;13.454;2023-08-06T09:58:01;17.70;99.90
6538;DHT22;3302;52.508;13.454;2023-08-06T10:00:26;17.80;99.90
6538;DHT22;3302;52.508;13.454;2023-08-06T10:02:54;17.80;99.90
6538;DHT22;3302;52.508;13.454;2023-08-06T10:05:22;17.60;99.90
6538;DHT22;3302;52.508;13.454;2023-08-06T10:07:49;17.80;99.90
6538;DHT22;3302;52.508;13.454;2023-08-06T10:10:16;17.70;99.90
6538;DHT22;3302;52.508;13.454;2023-08-06T10:12:49;17.60;99.90
6538;DHT22;3302;52.508;13.454;2023-08-06T10:15:20;17.70;99.90
6538;DHT22;3302;52.508;13.454;2023-08-06T10:17:47;17.70;99.90
6538;DHT22;3302;52.508;13.454;2023-08-06T10:20:15;17.70;99.90
6538;DHT22;3302;52.508;13.454;2023-08-06T10:22:44;17.80;99.90
6538;DHT22;3302;52.508;13.454;2023-08-06T10:25:10;17.80;99.90
6538;DHT22;3302;52.508;13.454;2023-08-06T10:27:53;17.90;99.90
6538;DHT22;3302;52.508;13.454;2023-08-06T10:30:28;17.80;99.90
6538;DHT22;3302;52.508;13.454;2023-08-06T10:32:55;17.80;99.90
6538;DHT22;3302;52.508;13.454;2023-08-06T10:35:35;17.90;99.90
6538;DHT22;3302;52.508;13.454;2023-08-06T10:38:05;18.00;99.90
6538;DHT22;3302;52.508;13.454;2023-08-06T10:40:32;17.90;99.90
6538;DHT22;3302;52.508;13.454;2023-08-06T10:42:59;17.90;99.90
6538;DHT22;3302;52.508;13.454;2023-08-06T10:45:25;17.90;99.90
6538;DHT22;3302;52.508;13.454;2023-08-06T10:47:54;17.90;99.90
6538;DHT22;3302;52.508;13.454;2023-08-06T10:50:22;17.90;99.90
6538;DHT22;3302;52.508;13.454;2023-08-06T10:52:48;18.00;99.90
6538;DHT22;3302;52.508;13.454;2023-08-06T10:55:21;18.00;99.90
6538;DHT22;3302;52.508;13.454;2023-08-06T10:57:47;17.90;99.90
6538;DHT22;3302;52.508;13.454;2023-08-06T11:00:13;17.90;99.90
6538;DHT22;3302;52.508;13.454;2023-08-06T11:02:39;18.00;99.90
6538;DHT22;3302;52.508;13.454;2023-08-06T11:05:09;18.00;99.90
6538;DHT22;3302;52.508;13.454;2023-08-06T11:07:36;18.10;99.90
6538;DHT22;3302;52.508;13.454;2023-08-06T11:10:09;18.00;99.90
6538;DHT22;3302;52.508;13.454;2023-08-06T11:12:36;18.00;99.90
6538;DHT22;3302;52.508;13.454;2023-08-06T11:15:03;18.00;99.90
6538;DHT22;3302;52.508;13.454;2023-08-06T11:17:31;18.00;99.90
6538;DHT22;3302;52.508;13.454;2023-08-06T11:20:04;18.00;99.90
6538;DHT22;3302;52.508;13.454;2023-08-06T11:22:30;17.90;99.90
6538;DHT22;3302;52.508;13.454;2023-08-06T11:24:56;18.00;99.90
6538;DHT22;3302;52.508;13.454;2023-08-06T11:27:22;17.90;99.90
6538;DHT22;3302;52.508;13.454;2023-08-06T11:29:48;18.00;99.90
6538;DHT22;3302;52.508;13.454;2023-08-06T11:32:14;18.10;99.90
6538;DHT22;3302;52.508;13.454;2023-08-06T11:34:40;18.10;99.90
6538;DHT22;3302;52.508;13.454;2023-08-06T11:37:09;18.00;99.90
6538;DHT22;3302;52.508;13.454;2023-08-06T11:39:37;18.20;99.90
6538;DHT22;3302;52.508;13.454;2023-08-06T11:42:04;18.10;99.90
6538;DHT22;3302;52.508;13.454;2023-08-06T11:44:31;18.10;99.90
6538;DHT22;3302;52.508;13.454;2023-08-06T11:47:00;18.10;99.90
6538;DHT22;3302;52.508;13.454;2023-08-06T11:49:49;18.10;99.90
6538;DHT22;3302;52.508;13.454;2023-08-06T11:52:17;18.10;99.90
6538;DHT22;3302;52.508;13.454;2023-08-06T11:57:25;18.10;99.90
6538;DHT22;3302;52.508;13.454;2023-08-06T11:59:51;18.20;99.90
6538;DHT22;3302;52.508;13.454;2023-08-06T12:02:16;18.30;99.90
6538;DHT22;3302;52.508;13.454;2023-08-06T12:05:18;18.30;99.90
6538;DHT22;3302;52.508;13.454;2023-08-06T12:07:48;18.40;99.90
6538;DHT22;3302;52.508;13.454;2023-08-06T12:10:15;18.30;99.90
6538;DHT22;3302;52.508;13.454;2023-08-06T12:12:41;18.30;99.90
6538;DHT22;3302;52.508;13.454;2023-08-06T12:15:08;18.20;99.90
6538;DHT22;3302;52.508;13.454;2023-08-06T12:17:35;18.20;99.90
6538;DHT22;3302;52.508;13.454;2023-08-06T12:20:04;18.30;99.90
6538;DHT22;3302;52.508;13.454;2023-08-06T12:22:32;18.20;99.90
6538;DHT22;3302;52.508;13.454;2023-08-06T12:25:02;18.10;99.90
6538;DHT22;3302;52.508;13.454;2023-08-06T12:27:29;17.80;99.90
6538;DHT22;3302;52.508;13.454;2023-08-06T12:29:55;18.00;99.90
6538;DHT22;3302;52.508;13.454;2023-08-06T12:32:21;18.10;99.90
6538;DHT22;3302;52.508;13.454;2023-08-06T12:34:47;18.10;99.90
6538;DHT22;3302;52.508;13.454;2023-08-06T12:37:13;18.30;99.90
6538;DHT22;3302;52.508;13.454;2023-08-06T12:39:39;18.20;99.90
6538;DHT22;3302;52.508;13.454;2023-08-06T12:42:06;18.20;99.90
6538;DHT22;3302;52.508;13.454;2023-08-06T12:44:32;18.20;99.90
6538;DHT22;3302;52.508;13.454;2023-08-06T12:46:58;18.20;99.90
6538;DHT22;3302;52.508;13.454;2023-08-06T12:49:26;18.30;99.90
6538;DHT22;3302;52.508;13.454;2023-08-06T12:51:53;18.50;99.90
6538;DHT22;3302;52.508;13.454;2023-08-06T12:54:20;18.30;99.90
6538;DHT22;3302;52.508;13.454;2023-08-06T12:56:46;18.30;99.90
6538;DHT22;3302;52.508;13.454;2023-08-06T12:59:16;18.30;99.90
6538;DHT22;3302;52.508;13.454;2023-08-06T13:01:43;18.30;99.90
6538;DHT22;3302;52.508;13.454;2023-08-06T13:04:09;18.30;99.90
6538;DHT22;3302;52.508;13.454;2023-08-06T13:06:35;18.40;99.90
6538;DHT22;3302;52.508;13.454;2023-08-06T13:09:09;18.20;99.90
6538;DHT22;3302;52.508;13.454;2023-08-06T13:11:36;18.30;99.90
6538;DHT22;3302;52.508;13.454;2023-08-06T13:14:07;18.20;99.90
6538;DHT22;3302;52.508;13.454;2023-08-06T13:16:35;18.20;99.90
6538;DHT22;3302;52.508;13.454;2023-08-06T13:19:01;18.30;99.90
6538;DHT22;3302;52.508;13.454;2023-08-06T13:21:35;18.00;99.90
6538;DHT22;3302;52.508;13.454;2023-08-06T13:24:02;18.00;99.90
6538;DHT22;3302;52.508;13.454;2023-08-06T13:26:29;18.00;99.90
6538;DHT22;3302;52.508;13.454;2023-08-06T13:28:59;18.00;99.90
6538;DHT22;3302;52.508;13.454;2023-08-06T13:31:26;17.90;99.90
6538;DHT22;3302;52.508;13.454;2023-08-06T13:33:56;17.90;99.90
6538;DHT22;3302;52.508;13.454;2023-08-06T13:36:28;18.10;99.90
6538;DHT22;3302;52.508;13.454;2023-08-06T13:38:55;18.00;99.90
6538;DHT22;3302;52.508;13.454;2023-08-06T13:41:22;18.00;99.90
6538;DHT22;3302;52.508;13.454;2023-08-06T13:43:48;18.00;99.90
6538;DHT22;3302;52.508;13.454;2023-08-06T13:46:14;17.80;99.90
6538;DHT22;3302;52.508;13.454;2023-08-06T13:48:44;17.70;99.90
6538;DHT22;3302;52.508;13.454;2023-08-06T13:51:12;17.90;99.90
6538;DHT22;3302;52.508;13.454;2023-08-06T13:53:40;17.90;99.90
6538;DHT22;3302;52.508;13.454;2023-08-06T13:56:08;17.90;99.90
6538;DHT22;3302;52.508;13.454;2023-08-06T13:58:35;17.90;99.90
6538;DHT22;3302;52.508;13.454;2023-08-06T14:01:01;18.00;99.90
6538;DHT22;3302;52.508;13.454;2023-08-06T14:03:27;18.00;99.90
6538;DHT22;3302;52.508;13.454;2023-08-06T14:05:53;17.90;99.90
6538;DHT22;3302;52.508;13.454;2023-08-06T14:08:22;17.90;99.90
6538;DHT22;3302;52.508;13.454;2023-08-06T14:10:49;17.90;99.90
6538;DHT22;3302;52.508;13.454;2023-08-06T14:13:15;17.90;99.90
6538;DHT22;3302;52.508;13.454;2023-08-06T14:15:41;17.80;99.90
6538;DHT22;3302;52.508;13.454;2023-08-06T14:18:07;17.80;99.90
6538;DHT22;3302;52.508;13.454;2023-08-06T14:20:36;18.00;99.90
6538;DHT22;3302;52.508;13.454;2023-08-06T14:23:02;17.80;99.90
6538;DHT22;3302;52.508;13.454;2023-08-06T14:25:28;17.80;99.90
6538;DHT22;3302;52.508;13.454;2023-08-06T14:27:53;17.70;99.90
6538;DHT22;3302;52.508;13.454;2023-08-06T14:30:19;17.60;99.90
6538;DHT22;3302;52.508;13.454;2023-08-06T14:32:45;17.60;99.90
6538;DHT22;3302;52.508;13.454;2023-08-06T14:35:11;17.60;99.90
6538;DHT22;3302;52.508;13.454;2023-08-06T14:37:37;17.50;99.90
6538;DHT22;3302;52.508;13.454;2023-08-06T14:40:05;17.60;99.90
6538;DHT22;3302;52.508;13.454;2023-08-06T14:42:31;17.50;99.90
6538;DHT22;3302;52.508;13.454;2023-08-06T14:44:57;17.50;99.90
6538;DHT22;3302;52.508;13.454;2023-08-06T14:47:24;17.20;99.90
6538;DHT22;3302;52.508;13.454;2023-08-06T14:49:50;17.10;99.90
6538;DHT22;3302;52.508;13.454;2023-08-06T14:52:17;17.00;99.90
6538;DHT22;3302;52.508;13.454;2023-08-06T14:54:42;16.90;99.90
6538;DHT22;3302;52.508;13.454;2023-08-06T14:57:11;16.90;99.90
6538;DHT22;3302;52.508;13.454;2023-08-06T14:59:39;17.00;99.90
6538;DHT22;3302;52.508;13.454;2023-08-06T15:02:06;16.90;99.90
6538;DHT22;3302;52.508;13.454;2023-08-06T15:04:32;16.90;99.90
6538;DHT22;3302;52.508;13.454;2023-08-06T15:06:57;16.60;99.90
6538;DHT22;3302;52.508;13.454;2023-08-06T15:09:24;16.70;99.90
6538;DHT22;3302;52.508;13.454;2023-08-06T15:11:50;16.80;99.90
6538;DHT22;3302;52.508;13.454;2023-08-06T15:14:16;17.00;99.90
6538;DHT22;3302;52.508;13.454;2023-08-06T15:16:42;17.10;99.90
6538;DHT22;3302;52.508;13.454;2023-08-06T15:19:08;17.30;99.90
6538;DHT22;3302;52.508;13.454;2023-08-06T15:21:33;17.30;99.90
6538;DHT22;3302;52.508;13.454;2023-08-06T15:23:59;17.30;99.90
6538;DHT22;3302;52.508;13.454;2023-08-06T15:26:25;17.20;99.90
6538;DHT22;3302;52.508;13.454;2023-08-06T15:28:51;17.20;99.90
6538;DHT22;3302;52.508;13.454;2023-08-06T15:31:20;17.10;99.90
6538;DHT22;3302;52.508;13.454;2023-08-06T15:33:49;17.10;99.90
6538;DHT22;3302;52.508;13.454;2023-08-06T15:36:15;17.20;99.90
6538;DHT22;3302;52.508;13.454;2023-08-06T15:38:41;17.20;99.90
6538;DHT22;3302;52.508;13.454;2023-08-06T15:41:06;17.10;99.90
6538;DHT22;3302;52.508;13.454;2023-08-06T15:43:32;17.10;99.90
6538;DHT22;3302;52.508;13.454;2023-08-06T15:45:59;17.00;99.90
6538;DHT22;3302;52.508;13.454;2023-08-06T15:48:25;17.00;99.90